Time;durP1;ratioP1;P1;durP2;ratioP2;P2;SDS_P1;SDS_P2;PMS_P1;PMS_P2;Temp;Humidity;BMP_temperature;BMP_pressure;BME280_temperature;BME280_humidity;BME280_pressure;Samples;Min_cycle;Max_cycle;Signal;HPM_P1;HPM_P2
2023/10/11 00:00:51;;;;;;;0.10;0.10;;;;;;;0.64;88.42;100063.13;4949194;28;20070;-66
2023/10/11 00:03:32;;;;;;;0.10;0.10;;;;;;;0.77;87.93;100074.94;4962799;28;20074;-66
2023/10/11 00:06:04;;;;;;;0.10;0.10;;;;;;;0.76;87.11;100074.13;4961544;28;20059;-66
2023/10/11 00:08:39;;;;;;;0.10;0.10;;;;;;;0.75;87.58;100067.09;4945262;28;20137;-66
2023/10/11 00:11:07;;;;;;;0.10;0.10;;;;;;;0.66;87.62;100066.47;4961958;28;20055;-66
2023/10/11 00:13:35;;;;;;;0.10;0.10;;;;;;;0.66;87.50;100076.38;4965087;28;20058;-66
2023/10/11 00:16:07;;;;;;;0.00;0.00;;;;;;;0.45;87.29;100061.19;4944714;28;20066;-66
2023/10/11 00:18:35;;;;;;;0.10;0.10;;;;;;;0.56;86.62;100090.22;4960462;28;20511;-66
2023/10/11 00:21:10;;;;;;;0.10;0.10;;;;;;;0.55;86.67;100096.63;4944154;28;20094;-66
2023/10/11 00:23:39;;;;;;;0.00;0.00;;;;;;;0.54;85.84;100095.78;4962320;28;20145;-66
2023/10/11 00:26:06;;;;;;;0.00;0.00;;;;;;;0.57;86.15;100091.88;4945137;28;20058;-66
2023/10/11 00:28:34;;;;;;;0.00;0.00;;;;;;;0.66;86.13;100098.75;4961999;28;20051;-66
2023/10/11 00:31:01;;;;;;;0.00;0.00;;;;;;;0.71;86.17;100100.84;4944337;28;20236;-67
2023/10/11 00:33:29;;;;;;;0.05;0.05;;;;;;;0.78;85.74;100104.38;4961915;28;20049;-67
2023/10/11 00:35:55;;;;;;;0.00;0.00;;;;;;;0.85;85.49;100104.41;4960860;28;20113;-66
2023/10/11 00:38:27;;;;;;;0.00;0.00;;;;;;;0.91;84.87;100100.88;4962147;28;20097;-66
2023/10/11 00:41:12;;;;;;;0.00;0.00;;;;;;;0.92;84.80;100101.72;4963358;28;20047;-66
2023/10/11 00:43:41;;;;;;;0.10;0.10;;;;;;;0.96;84.77;100103.81;4944511;28;20054;-66
2023/10/11 00:46:09;;;;;;;0.10;0.10;;;;;;;0.98;84.26;100107.13;4963145;28;20101;-66
2023/10/11 00:48:37;;;;;;;0.10;0.10;;;;;;;0.96;83.30;100113.75;4943439;28;20419;-66
2023/10/11 00:51:07;;;;;;;0.00;0.00;;;;;;;0.98;83.96;100117.91;4958658;28;20082;-67
2023/10/11 00:53:36;;;;;;;0.03;0.03;;;;;;;0.98;83.36;100123.28;4964990;28;20511;-67
2023/10/11 00:56:04;;;;;;;0.10;0.10;;;;;;;0.93;82.31;100119.53;4949601;28;20047;-66
2023/10/11 00:58:31;;;;;;;0.10;0.10;;;;;;;0.82;82.67;100118.28;4964037;28;20051;-67
2023/10/11 01:01:00;;;;;;;0.10;0.10;;;;;;;0.78;83.07;100122.38;4963287;28;20054;-67
2023/10/11 01:03:31;;;;;;;0.10;0.10;;;;;;;0.71;83.46;100119.69;4946286;28;20051;-67
2023/10/11 01:05:59;;;;;;;0.10;0.10;;;;;;;0.68;84.00;100120.91;4964984;28;20051;-67
2023/10/11 01:08:26;;;;;;;0.10;0.10;;;;;;;0.70;84.55;100124.22;4964824;28;20042;-66
2023/10/11 01:10:54;;;;;;;0.00;0.00;;;;;;;0.68;84.65;100136.22;4947866;28;20137;-66
2023/10/11 01:13:20;;;;;;;0.00;0.00;;;;;;;0.63;84.65;100134.16;4961824;28;20050;-66
2023/10/11 01:15:47;;;;;;;0.00;0.00;;;;;;;0.56;84.79;100125.22;4964611;28;20406;-66
2023/10/11 01:18:13;;;;;;;0.00;0.00;;;;;;;0.55;85.01;100145.91;4938821;29;20102;-66
2023/10/11 01:20:41;;;;;;;0.00;0.00;;;;;;;0.54;84.90;100133.47;4937103;28;20049;-66
2023/10/11 01:23:07;;;;;;;;;;;;;;;0.53;85.03;100136.38;4964855;28;20050;-67
2023/10/11 01:25:33;;;;;;;0.10;0.10;;;;;;;0.56;85.28;100144.88;4947539;28;20353;-66
2023/10/11 01:28:00;;;;;;;0.05;0.05;;;;;;;0.63;85.72;100142.22;4953586;28;20047;-67
2023/10/11 01:30:27;;;;;;;0.00;0.00;;;;;;;0.61;85.97;100157.72;4962312;28;20380;-66
2023/10/11 01:32:54;;;;;;;0.05;0.05;;;;;;;0.55;85.88;100159.38;4948286;28;20323;-67
2023/10/11 01:35:21;;;;;;;0.10;0.10;;;;;;;0.43;85.85;100158.28;4947423;28;20073;-66
2023/10/11 01:37:49;;;;;;;0.10;0.10;;;;;;;0.31;86.04;100155.28;4947136;28;20518;-67
2023/10/11 01:40:21;;;;;;;0.10;0.10;;;;;;;0.15;86.66;100164.53;4964387;28;20053;-66
2023/10/11 01:42:49;;;;;;;0.10;0.10;;;;;;;0.03;86.93;100172.31;4947203;28;20079;-66
2023/10/11 01:45:17;;;;;;;0.00;0.00;;;;;;;-0.07;87.34;100169.13;4960943;28;20138;-66
2023/10/11 01:47:46;;;;;;;0.10;0.10;;;;;;;-0.16;87.75;100165.75;4946443;28;20462;-66
2023/10/11 01:50:14;;;;;;;0.10;0.10;;;;;;;-0.20;87.78;100172.56;4933241;28;20046;-66
2023/10/11 01:52:40;;;;;;;;;;;;;;;-0.24;87.49;100176.63;4947663;28;20546;-66
2023/10/11 01:55:13;;;;;;;0.10;0.10;;;;;;;-0.31;87.94;100180.09;4962081;28;19930;-66
2023/10/11 01:57:41;;;;;;;0.00;0.00;;;;;;;-0.32;87.98;100188.34;4945722;28;20111;-66
2023/10/11 02:00:13;;;;;;;0.00;0.00;;;;;;;-0.34;88.10;100195.78;4930428;28;20050;-67
2023/10/11 02:02:47;;;;;;;0.00;0.00;;;;;;;-0.40;87.92;100185.81;4955619;28;20054;-67
2023/10/11 02:05:15;;;;;;;0.00;0.00;;;;;;;-0.38;88.10;100187.28;4946384;28;20114;-67
2023/10/11 02:07:41;;;;;;;0.00;0.00;;;;;;;-0.38;88.39;100198.03;4964628;28;20366;-67
2023/10/11 02:10:13;;;;;;;0.00;0.00;;;;;;;-0.43;88.64;100185.19;4933846;28;20051;-66
2023/10/11 02:12:44;;;;;;;0.00;0.00;;;;;;;-0.47;89.17;100186.59;4964452;28;20038;-66
2023/10/11 02:15:21;;;;;;;0.00;0.00;;;;;;;-0.45;88.72;100184.53;4944344;28;20113;-67
2023/10/11 02:17:49;;;;;;;0.10;0.10;;;;;;;-0.46;88.38;100190.94;4947762;28;20494;-67
2023/10/11 02:20:20;;;;;;;0.00;0.00;;;;;;;-0.47;88.69;100186.59;4962797;28;20653;-67
2023/10/11 02:22:50;;;;;;;0.10;0.10;;;;;;;-0.50;88.17;100191.53;4962683;28;20047;-67
2023/10/11 02:25:18;;;;;;;0.10;0.10;;;;;;;-0.53;88.02;100190.03;4962484;28;20581;-66
2023/10/11 02:27:49;;;;;;;0.00;0.00;;;;;;;-0.53;88.04;100203.47;4962570;28;20089;-66
2023/10/11 02:30:24;;;;;;;0.10;0.10;;;;;;;-0.57;88.41;100207.56;4946478;28;20109;-66
2023/10/11 02:32:53;;;;;;;0.10;0.10;;;;;;;-0.61;89.21;100206.28;4946851;28;20101;-67
2023/10/11 02:35:20;;;;;;;0.10;0.10;;;;;;;-0.62;89.63;100218.06;4963244;28;20046;-67
2023/10/11 02:37:46;;;;;;;0.20;0.10;;;;;;;-0.62;89.45;100204.63;4962186;28;20059;-67
2023/10/11 02:40:16;;;;;;;0.00;0.00;;;;;;;-0.64;89.42;100207.50;4945340;28;20177;-67
2023/10/11 02:42:46;;;;;;;0.00;0.00;;;;;;;-0.67;89.74;100209.72;4946520;28;20059;-67
2023/10/11 02:45:14;;;;;;;0.10;0.10;;;;;;;-0.68;89.86;100214.28;4946819;28;20340;-67
2023/10/11 02:47:40;;;;;;;;;;;;;;;-0.65;89.26;100221.09;4965494;28;20058;-67
2023/10/11 02:50:08;;;;;;;0.00;0.00;;;;;;;-0.72;88.90;100211.13;4962075;28;19977;-66
2023/10/11 02:52:37;;;;;;;0.10;0.10;;;;;;;-0.72;89.13;100221.88;4947878;28;20050;-67
2023/10/11 02:57:47;;;;;;;0.00;0.00;;;;;;;-0.74;89.67;100226.63;4946272;29;20439;-67
2023/10/11 03:00:23;;;;;;;0.10;0.10;;;;;;;-0.71;89.84;100236.13;4932988;28;20047;-66
2023/10/11 03:02:54;;;;;;;0.00;0.00;;;;;;;-0.75;89.57;100232.16;4963154;28;20074;-66
2023/10/11 03:05:27;;;;;;;0.10;0.10;;;;;;;-0.78;89.15;100236.06;4944347;28;20051;-66
2023/10/11 03:07:55;;;;;;;0.00;0.00;;;;;;;-0.79;89.28;100238.94;4963530;28;20545;-67
2023/10/11 03:10:22;;;;;;;0.10;0.10;;;;;;;-0.81;89.39;100238.31;4962515;28;20462;-66
2023/10/11 03:12:51;;;;;;;0.10;0.10;;;;;;;-0.84;89.32;100234.13;4947474;28;20455;-67
2023/10/11 03:15:19;;;;;;;0.00;0.00;;;;;;;-0.79;89.10;100250.50;4961592;28;20049;-66
2023/10/11 03:17:48;;;;;;;0.10;0.10;;;;;;;-0.80;89.28;100240.78;4963265;28;20145;-66
2023/10/11 03:22:53;;;;;;;0.00;0.00;;;;;;;-0.78;89.60;100246.81;4942618;28;20461;-66
2023/10/11 03:25:19;;;;;;;0.10;0.10;;;;;;;-0.92;89.47;100229.72;4962671;28;20546;-66
2023/10/11 03:27:49;;;;;;;0.00;0.00;;;;;;;-0.77;89.36;100256.53;4962975;28;20070;-66
2023/10/11 03:30:21;;;;;;;0.00;0.00;;;;;;;-0.78;88.81;100251.34;4961612;28;20043;-66
2023/10/11 03:32:48;;;;;;;0.10;0.10;;;;;;;-0.78;88.81;100249.50;4963349;28;20123;-66
2023/10/11 03:35:18;;;;;;;0.10;0.10;;;;;;;-0.80;89.35;100254.22;4963279;28;20084;-66
2023/10/11 03:37:57;;;;;;;0.10;0.10;;;;;;;-0.79;88.94;100255.88;4962232;28;20050;-67
2023/10/11 03:40:34;;;;;;;0.00;0.00;;;;;;;-0.79;89.33;100255.06;4933714;28;20054;-66
2023/10/11 03:43:03;;;;;;;0.10;0.10;;;;;;;-0.80;89.43;100259.56;4917991;28;20101;-66
2023/10/11 03:45:34;;;;;;;0.00;0.00;;;;;;;-0.81;89.81;100259.78;4944858;28;20046;-66
2023/10/11 03:48:09;;;;;;;0.10;0.10;;;;;;;-0.81;90.24;100257.91;4945569;28;20043;-68
2023/10/11 03:50:47;;;;;;;0.10;0.10;;;;;;;-0.85;90.24;100256.63;4962673;28;20051;-66
2023/10/11 03:53:15;;;;;;;0.10;0.10;;;;;;;-0.77;89.94;100259.22;4932694;28;20561;-66
2023/10/11 03:55:47;;;;;;;;;;;;;;;-0.75;90.10;100256.34;4945263;28;20054;-66
2023/10/11 03:58:23;;;;;;;0.10;0.10;;;;;;;-0.72;90.03;100261.31;4964696;28;19976;-66
2023/10/11 04:00:51;;;;;;;0.10;0.10;;;;;;;-0.81;89.76;100236.44;4937219;28;20098;-66
2023/10/11 04:03:20;;;;;;;0.00;0.00;;;;;;;-0.63;89.89;100259.34;4962268;28;20050;-66
2023/10/11 04:05:47;;;;;;;0.10;0.10;;;;;;;-0.59;89.48;100263.34;4961606;28;20055;-66
2023/10/11 04:08:20;;;;;;;;;;;;;;;-0.54;89.54;100255.53;4963037;28;20137;-66
2023/10/11 04:10:46;;;;;;;0.10;0.10;;;;;;;-0.48;88.86;100262.81;4945664;28;19977;-66
2023/10/11 04:13:15;;;;;;;0.10;0.10;;;;;;;-0.43;88.65;100267.63;4956420;28;20049;-66
2023/10/11 04:15:42;;;;;;;0.10;0.10;;;;;;;-0.43;88.34;100265.78;4915216;28;20057;-66
2023/10/11 04:18:53;;;;;;;0.00;0.00;;;;;;;-0.36;88.09;100270.38;4946463;28;20443;-66
2023/10/11 04:23:39;;;;;;;0.10;0.10;;;;;;;-0.31;87.16;100257.22;4944991;28;20051;-66
2023/10/11 04:26:26;;;;;;;0.10;0.10;;;;;;;-0.27;86.88;100258.50;4945272;28;20051;-66
2023/10/11 04:28:53;;;;;;;0.10;0.10;;;;;;;-0.23;86.50;100261.66;4960756;28;20043;-66
2023/10/11 04:31:31;;;;;;;0.10;0.10;;;;;;;-0.20;86.59;100266.63;4949078;28;20069;-66
2023/10/11 04:33:59;;;;;;;0.00;0.00;;;;;;;-0.23;86.78;100261.66;4956861;28;20066;-66
2023/10/11 04:36:28;;;;;;;0.10;0.10;;;;;;;-0.24;86.62;100268.88;4964943;28;20054;-66
2023/10/11 04:39:13;;;;;;;0.10;0.10;;;;;;;-0.22;86.89;100271.38;4948365;28;20051;-66
2023/10/11 04:41:49;;;;;;;0.10;0.10;;;;;;;-0.15;86.42;100274.94;4967184;28;20047;-66
2023/10/11 04:44:17;;;;;;;0.10;0.10;;;;;;;-0.08;86.24;100280.38;4965249;28;20062;-66
2023/10/11 04:46:44;;;;;;;0.10;0.10;;;;;;;-0.03;85.50;100273.41;4965095;28;20422;-66
2023/10/11 04:49:18;;;;;;;0.10;0.10;;;;;;;0.06;85.34;100271.41;4954002;28;20321;-66
2023/10/11 04:51:46;;;;;;;0.10;0.10;;;;;;;0.14;85.33;100284.69;4965907;28;20581;-66
2023/10/11 04:54:18;;;;;;;0.10;0.10;;;;;;;0.18;84.90;100277.09;4604772;28;10000500;-66
2023/10/11 04:59:17;;;;;;;0.10;0.10;;;;;;;0.25;84.16;100278.00;4962924;28;20078;-66
2023/10/11 05:04:15;;;;;;;0.10;0.10;;;;;;;0.31;84.88;100286.28;4959058;28;20070;-66
2023/10/11 05:06:43;;;;;;;0.10;0.10;;;;;;;0.32;84.61;100283.44;4945189;28;20146;-66
2023/10/11 05:11:50;;;;;;;0.10;0.10;;;;;;;0.29;83.54;100283.78;4942124;28;20114;-66
2023/10/11 05:14:29;;;;;;;0.10;0.10;;;;;;;0.31;83.90;100283.59;4942951;28;20056;-66
2023/10/11 05:17:16;;;;;;;0.10;0.10;;;;;;;0.38;84.30;100279.94;4941777;29;20114;-66
2023/10/11 05:19:53;;;;;;;0.10;0.10;;;;;;;0.53;84.76;100279.00;4942201;28;20051;-70
2023/10/11 05:32:32;;;;;;;0.05;0.05;;;;;;;1.01;83.55;100280.91;4940632;28;20187;-66
2023/10/11 05:35:19;;;;;;;0.10;0.10;;;;;;;1.07;83.13;100282.84;4940824;28;20051;-66
2023/10/11 05:51:31;;;;;;;0.10;0.10;;;;;;;1.25;80.21;100281.44;4937770;29;20431;-67
2023/10/11 05:53:59;;;;;;;0.10;0.10;;;;;;;1.29;80.31;100271.13;4937597;29;20052;-66
2023/10/11 05:56:33;;;;;;;0.10;0.10;;;;;;;1.33;79.90;100273.22;4937962;28;20533;-66
2023/10/11 05:59:04;;;;;;;0.10;0.10;;;;;;;1.39;79.37;100280.47;4937226;29;20051;-68
2023/10/11 06:01:34;;;;;;;0.10;0.10;;;;;;;1.48;79.09;100277.56;4954323;28;20051;-66
2023/10/11 06:04:03;;;;;;;0.10;0.10;;;;;;;1.47;78.56;100279.47;4921997;29;20063;-66
2023/10/11 06:06:39;;;;;;;0.10;0.10;;;;;;;1.50;78.34;100284.44;4939836;28;20054;-66
2023/10/11 06:09:05;;;;;;;0.10;0.10;;;;;;;1.58;78.33;100288.00;4941700;28;20065;-66
2023/10/11 06:11:36;;;;;;;0.10;0.10;;;;;;;1.64;77.95;100288.03;4925009;29;20047;-66
2023/10/11 06:14:07;;;;;;;0.10;0.10;;;;;;;1.69;77.63;100279.28;4927396;29;20047;-66
2023/10/11 06:16:43;;;;;;;0.10;0.10;;;;;;;1.79;76.78;100284.28;4948373;28;20051;-66
2023/10/11 06:19:18;;;;;;;0.10;0.10;;;;;;;1.64;76.86;100244.03;4945715;29;20043;-67
2023/10/11 06:21:57;;;;;;;0.10;0.10;;;;;;;2.02;76.34;100288.47;4946459;29;20595;-66
2023/10/11 06:24:24;;;;;;;0.10;0.10;;;;;;;2.06;75.02;100282.47;4944735;29;20146;-67
2023/10/11 06:26:55;;;;;;;0.10;0.10;;;;;;;2.15;75.00;100288.50;4948745;28;20102;-67
2023/10/11 06:29:26;;;;;;;0.10;0.10;;;;;;;2.26;74.71;100281.63;4930327;29;20058;-66
2023/10/11 06:31:53;;;;;;;0.38;0.10;;;;;;;2.35;73.49;100284.97;4948116;28;20054;-67
2023/10/11 06:34:26;;;;;;;0.10;0.10;;;;;;;2.38;73.58;100279.97;4946260;28;20138;-66
2023/10/11 06:36:55;;;;;;;0.10;0.10;;;;;;;2.46;73.31;100281.63;4946458;28;20065;-66
2023/10/11 06:42:31;;;;;;;0.10;0.10;;;;;;;2.55;71.93;100287.66;4945962;28;20597;-66
2023/10/11 06:44:57;;;;;;;0.10;0.10;;;;;;;2.67;71.53;100288.66;4943398;28;20051;-66
2023/10/11 06:47:25;;;;;;;0.10;0.10;;;;;;;2.68;70.84;100279.53;4961828;28;20569;-66
2023/10/11 06:49:55;;;;;;;;;;;;;;;2.82;70.68;100282.19;4946926;28;20055;-66
2023/10/11 06:52:30;;;;;;;0.10;0.10;;;;;;;2.94;70.35;100293.19;4946218;28;19926;-66
2023/10/11 06:57:40;;;;;;;0.10;0.10;;;;;;;3.22;69.34;100281.25;4942420;28;20043;-66
2023/10/11 07:00:24;;;;;;;0.10;0.10;;;;;;;3.30;68.61;100280.16;4944798;28;20617;-67
2023/10/11 07:02:52;;;;;;;0.20;0.20;;;;;;;3.73;67.37;100278.69;4945477;29;20046;-67
2023/10/11 07:05:20;;;;;;;0.17;0.17;;;;;;;4.54;65.00;100285.13;4954998;28;20487;-67
2023/10/11 07:07:48;;;;;;;0.10;0.10;;;;;;;5.19;62.72;100284.88;4946053;28;20086;-67
2023/10/11 07:10:33;;;;;;;0.20;0.20;;;;;;;5.79;59.98;100284.09;4946821;28;20507;-67
2023/10/11 07:13:03;;;;;;;0.20;0.20;;;;;;;6.29;58.75;100279.38;4946821;28;20043;-67
2023/10/11 07:15:37;;;;;;;0.13;0.13;;;;;;;6.66;56.69;100273.72;4945530;29;20047;-67
2023/10/11 07:18:08;;;;;;;0.20;0.20;;;;;;;7.02;55.90;100276.38;4931303;29;20043;-66
2023/10/11 07:20:48;;;;;;;0.10;0.10;;;;;;;7.39;54.70;100283.41;4949003;28;20058;-66
2023/10/11 07:23:22;;;;;;;0.10;0.10;;;;;;;7.50;53.58;100258.03;4948201;29;20043;-66
2023/10/11 07:25:59;;;;;;;0.10;0.10;;;;;;;7.73;52.87;100283.50;4952320;28;20403;-67
2023/10/11 07:28:35;;;;;;;0.10;0.10;;;;;;;7.52;53.24;100283.13;4944442;28;20043;-67
2023/10/11 07:31:03;;;;;;;0.10;0.10;;;;;;;7.40;52.38;100265.16;4945987;29;20047;-68
2023/10/11 07:33:30;;;;;;;0.10;0.10;;;;;;;7.29;52.79;100292.19;4943821;28;20139;-66
2023/10/11 07:35:59;;;;;;;0.20;0.20;;;;;;;7.30;53.20;100273.94;4945089;28;20039;-66
2023/10/11 07:38:34;;;;;;;0.20;0.20;;;;;;;7.75;52.61;100273.19;4943770;29;20042;-66
2023/10/11 07:41:05;;;;;;;0.10;0.10;;;;;;;8.15;50.76;100279.59;4939028;29;20530;-66
2023/10/11 07:43:33;;;;;;;0.20;0.20;;;;;;;7.95;51.16;100275.44;4935704;28;20399;-66
2023/10/11 07:46:02;;;;;;;0.20;0.20;;;;;;;8.16;51.04;100269.53;4957683;28;20419;-66
2023/10/11 07:48:32;;;;;;;0.10;0.10;;;;;;;8.59;50.16;100278.13;4960823;28;20133;-66
2023/10/11 07:51:09;;;;;;;0.10;0.10;;;;;;;9.26;48.97;100279.00;4948057;28;20055;-66
2023/10/11 07:53:40;;;;;;;0.15;0.15;;;;;;;9.58;47.38;100282.94;4944155;29;20051;-66
2023/10/11 07:56:06;;;;;;;0.15;0.15;;;;;;;9.40;47.77;100284.91;4943805;28;20051;-67
2023/10/11 07:58:35;;;;;;;0.20;0.20;;;;;;;9.53;47.45;100278.22;4959368;28;20049;-68
2023/10/11 08:01:15;;;;;;;0.10;0.10;;;;;;;9.39;47.70;100279.69;4939112;29;20146;-68
2023/10/11 08:03:44;;;;;;;0.20;0.20;;;;;;;9.67;47.19;100277.84;4946412;28;20177;-66
2023/10/11 08:06:12;;;;;;;0.20;0.20;;;;;;;9.88;46.30;100287.06;4965437;28;20337;-68
2023/10/11 08:08:40;;;;;;;0.17;0.17;;;;;;;10.04;45.91;100285.28;4966752;28;20138;-67
2023/10/11 08:11:18;;;;;;;0.20;0.20;;;;;;;10.10;45.86;100288.88;4963867;28;20047;-67
2023/10/11 08:13:47;;;;;;;0.20;0.20;;;;;;;10.17;45.81;100273.94;4965920;28;20422;-66
2023/10/11 08:16:17;;;;;;;0.20;0.20;;;;;;;10.57;45.13;100284.66;4944042;28;20051;-66
2023/10/11 08:18:46;;;;;;;0.20;0.20;;;;;;;10.50;43.54;100280.22;4947966;28;20415;-68
2023/10/11 08:21:12;;;;;;;0.10;0.10;;;;;;;10.03;42.61;100286.38;4946368;28;20350;-66
2023/10/11 08:23:43;;;;;;;0.10;0.10;;;;;;;9.69;42.99;100271.03;4962362;28;20055;-68
2023/10/11 08:26:14;;;;;;;0.10;0.10;;;;;;;9.49;43.76;100277.09;4947894;28;20062;-66
2023/10/11 08:28:48;;;;;;;0.10;0.10;;;;;;;9.34;44.37;100267.66;4964169;28;20054;-67
2023/10/11 08:31:29;;;;;;;0.20;0.20;;;;;;;9.20;44.31;100278.13;4961603;28;20632;-68
2023/10/11 08:33:55;;;;;;;0.20;0.20;;;;;;;9.42;44.53;100271.84;4952517;28;20061;-67
2023/10/11 08:36:22;;;;;;;0.20;0.20;;;;;;;9.56;44.51;100268.72;4957341;28;20050;-67
2023/10/11 08:38:50;;;;;;;0.20;0.20;;;;;;;10.22;43.82;100270.41;4960733;28;20078;-68
2023/10/11 08:41:18;;;;;;;0.20;0.20;;;;;;;10.56;43.03;100272.88;4941634;28;20050;-68
2023/10/11 08:43:53;;;;;;;0.20;0.20;;;;;;;10.56;42.32;100275.63;4943873;28;20098;-68
2023/10/11 08:46:23;;;;;;;0.25;0.25;;;;;;;10.26;41.32;100251.59;4926891;28;20173;-67
2023/10/11 08:48:50;;;;;;;0.20;0.20;;;;;;;9.63;42.23;100252.94;4943798;28;20070;-66
2023/10/11 08:51:22;;;;;;;0.20;0.20;;;;;;;9.40;42.92;100263.09;4962321;28;20137;-68
2023/10/11 08:53:54;;;;;;;0.20;0.20;;;;;;;9.15;43.46;100258.16;4945816;28;20141;-68
2023/10/11 08:56:22;;;;;;;0.20;0.20;;;;;;;9.14;43.99;100262.78;4937847;28;20122;-67
2023/10/11 08:58:53;;;;;;;0.20;0.20;;;;;;;9.26;43.17;100259.09;4952779;28;20121;-66
2023/10/11 09:01:24;;;;;;;0.30;0.30;;;;;;;9.44;42.87;100249.72;4948307;28;20816;-66
2023/10/11 09:04:11;;;;;;;0.20;0.20;;;;;;;9.63;43.62;100245.59;4947085;28;20460;-66
2023/10/11 09:06:43;;;;;;;0.30;0.30;;;;;;;10.22;42.07;100262.22;4951717;28;20065;-66
2023/10/11 09:09:33;;;;;;;0.20;0.20;;;;;;;9.90;42.30;100269.31;4934824;28;20074;-66
2023/10/11 09:11:59;;;;;;;0.30;0.30;;;;;;;9.41;42.98;100233.88;4947778;28;20085;-68
2023/10/11 09:14:29;;;;;;;0.25;0.25;;;;;;;9.46;43.19;100223.84;4956603;28;20054;-68
2023/10/11 09:17:02;;;;;;;0.20;0.20;;;;;;;9.35;42.92;100244.75;4965256;28;20051;-68
2023/10/11 09:19:32;;;;;;;0.30;0.30;;;;;;;8.98;43.05;100236.38;4965219;28;20047;-66
2023/10/11 09:22:02;;;;;;;0.30;0.30;;;;;;;8.90;42.78;100222.13;4933397;28;20047;-66
2023/10/11 09:24:41;;;;;;;0.30;0.30;;;;;;;9.12;42.67;100221.28;4961138;28;20046;-67
2023/10/11 09:29:46;;;;;;;0.30;0.30;;;;;;;8.69;42.74;100231.09;4964601;28;20051;-67
2023/10/11 09:35:23;;;;;;;0.20;0.20;;;;;;;8.29;44.42;100239.22;4956351;28;20201;-66
2023/10/11 09:37:50;;;;;;;0.20;0.20;;;;;;;8.38;44.34;100223.28;4967342;28;20494;-67
2023/10/11 09:40:18;;;;;;;0.20;0.20;;;;;;;8.58;43.72;100233.66;4968523;28;20062;-66
2023/10/11 09:42:48;;;;;;;0.22;0.22;;;;;;;8.73;43.41;100224.06;4966614;28;20042;-67
2023/10/11 09:45:17;;;;;;;0.20;0.20;;;;;;;9.00;42.92;100212.41;4967861;28;20136;-66
2023/10/11 09:47:45;;;;;;;0.20;0.20;;;;;;;9.27;42.51;100176.16;4967079;28;20425;-67
2023/10/11 09:50:15;;;;;;;0.20;0.20;;;;;;;10.12;40.90;100199.28;4967387;28;20513;-67
2023/10/11 09:52:47;;;;;;;0.25;0.25;;;;;;;10.53;39.58;100188.66;4969897;28;20097;-65
2023/10/11 09:55:19;;;;;;;0.30;0.30;;;;;;;10.10;38.58;100228.78;4949655;28;20121;-67
2023/10/11 09:57:57;;;;;;;0.20;0.20;;;;;;;9.70;39.16;100209.06;4969123;28;20141;-67
2023/10/11 10:00:36;;;;;;;0.22;0.22;;;;;;;9.58;38.86;100195.56;4948767;28;20567;-67
2023/10/11 10:03:04;;;;;;;0.20;0.20;;;;;;;9.81;39.25;100167.09;4966189;28;20047;-66
2023/10/11 10:06:06;;;;;;;0.20;0.20;;;;;;;10.40;38.25;100164.50;4967244;28;20153;-67
2023/10/11 10:08:33;;;;;;;0.22;0.22;;;;;;;10.92;37.55;100169.13;4962635;28;20054;-67
2023/10/11 10:11:02;;;;;;;0.30;0.30;;;;;;;10.25;36.83;100157.03;4950977;28;20185;-67
2023/10/11 10:14:00;;;;;;;0.20;0.20;;;;;;;10.05;38.18;100172.19;4971234;28;20407;-68
2023/10/11 10:16:59;;;;;;;0.20;0.20;;;;;;;9.68;38.26;100127.41;4968382;28;20046;-67
2023/10/11 10:19:25;;;;;;;0.20;0.20;;;;;;;10.10;38.53;100144.91;4967446;28;20047;-68
2023/10/11 10:22:10;;;;;;;0.20;0.20;;;;;;;10.52;38.28;100165.13;4969200;28;20173;-68
2023/10/11 10:24:36;;;;;;;0.20;0.20;;;;;;;10.29;38.57;100149.94;4950800;28;20532;-67
2023/10/11 10:27:35;;;;;;;0.20;0.20;;;;;;;10.40;39.08;100150.81;4966867;28;20058;-68
2023/10/11 10:30:04;;;;;;;0.25;0.25;;;;;;;10.34;39.15;100139.88;4966293;28;20050;-68
2023/10/11 10:32:32;;;;;;;0.20;0.20;;;;;;;10.66;38.13;100140.84;4951821;28;20697;-68
2023/10/11 10:35:27;;;;;;;0.20;0.20;;;;;;;10.99;37.22;100140.72;4952010;28;20114;-68
2023/10/11 10:37:57;;;;;;;0.25;0.25;;;;;;;10.95;37.23;100139.63;4966395;28;20074;-68
2023/10/11 10:40:25;;;;;;;0.20;0.20;;;;;;;10.66;37.55;100148.25;4968449;28;20054;-68
2023/10/11 10:43:23;;;;;;;0.20;0.20;;;;;;;10.59;37.93;100123.88;4968695;28;20050;-68
2023/10/11 10:45:52;;;;;;;0.30;0.30;;;;;;;10.80;37.69;100132.16;4947574;28;20541;-68
2023/10/11 10:48:22;;;;;;;0.20;0.20;;;;;;;11.14;37.24;100124.31;4945400;28;20077;-67
2023/10/11 10:50:50;;;;;;;0.20;0.20;;;;;;;11.19;37.03;100134.47;4967409;28;20105;-68
2023/10/11 10:53:16;;;;;;;0.30;0.30;;;;;;;11.31;36.69;100136.94;4968734;28;20046;-68
2023/10/11 10:55:43;;;;;;;0.35;0.35;;;;;;;11.64;35.84;100132.03;4951306;28;20459;-68
2023/10/11 10:58:16;;;;;;;0.30;0.30;;;;;;;11.69;35.26;100112.84;4968592;28;20121;-68
2023/10/11 11:00:43;;;;;;;0.20;0.20;;;;;;;11.57;35.34;100117.81;4963716;28;20109;-68
2023/10/11 11:03:19;;;;;;;0.20;0.20;;;;;;;10.70;35.33;100122.84;4965418;28;20132;-68
2023/10/11 11:05:56;;;;;;;0.20;0.20;;;;;;;9.90;36.56;100110.88;4965714;28;20062;-68
2023/10/11 11:08:31;;;;;;;0.30;0.30;;;;;;;9.71;37.56;100113.22;4960211;28;20054;-67
2023/10/11 11:11:18;;;;;;;0.20;0.20;;;;;;;9.83;38.09;100121.22;4965405;28;20057;-68
2023/10/11 11:13:47;;;;;;;0.20;0.20;;;;;;;9.87;37.89;100119.63;4965679;28;20039;-68
2023/10/11 11:16:17;;;;;;;0.20;0.20;;;;;;;9.62;37.93;100120.25;4948270;28;20054;-66
2023/10/11 11:18:46;;;;;;;0.20;0.20;;;;;;;9.21;38.81;100107.91;4966189;28;20047;-66
2023/10/11 11:21:17;;;;;;;0.20;0.20;;;;;;;9.09;39.33;100101.78;4965702;28;20043;-66
2023/10/11 11:23:50;;;;;;;0.28;0.28;;;;;;;9.31;39.34;100107.19;4964854;28;20062;-66
2023/10/11 11:26:17;;;;;;;0.20;0.20;;;;;;;9.44;39.29;100105.06;4964688;28;20059;-66
2023/10/11 11:28:45;;;;;;;0.20;0.20;;;;;;;9.58;39.35;100100.81;4966175;28;20051;-66
2023/10/11 11:31:13;;;;;;;0.25;0.25;;;;;;;9.82;39.21;100091.44;4966526;28;20585;-67
2023/10/11 11:36:41;;;;;;;0.50;0.50;;;;;;;11.07;36.80;100085.44;4924519;29;20051;-66
2023/10/11 11:39:27;;;;;;;0.60;0.60;;;;;;;12.09;34.61;100095.84;4913155;29;20047;-66
2023/10/11 11:41:58;;;;;;;0.60;0.60;;;;;;;12.49;33.50;100074.91;4918311;29;20373;-67
2023/10/11 11:44:31;;;;;;;0.70;0.70;;;;;;;12.87;33.34;100102.69;4922455;29;20048;-68
2023/10/11 11:47:05;;;;;;;0.80;0.80;;;;;;;13.31;31.89;100094.72;4905625;29;20052;-68
2023/10/11 11:49:34;;;;;;;0.70;0.70;;;;;;;13.76;31.06;100080.91;4905969;29;20040;-66
2023/10/11 11:52:03;;;;;;;0.90;0.90;;;;;;;13.87;30.67;100098.94;4905823;29;20525;-67
2023/10/11 11:54:29;;;;;;;0.90;0.90;;;;;;;14.08;30.01;100079.50;4923037;29;20587;-67
2023/10/11 11:56:57;;;;;;;0.93;0.93;;;;;;;14.32;29.36;100073.19;4907434;29;20192;-68
2023/10/11 11:59:23;;;;;;;;;;;;;;;14.27;28.93;100070.47;4919060;29;20051;-68
2023/10/11 12:01:53;;;;;;;;;;;;;;;14.45;28.64;100069.72;4926136;29;20829;-66
2023/10/11 12:04:24;;;;;;;;;;;;;;;14.45;28.19;100077.16;4917669;29;20301;-68
2023/10/11 12:06:49;;;;;;;;;;;;;;;13.69;28.79;100085.94;4925316;29;19938;-67
2023/10/11 12:09:25;;;;;;;;;;;;;;;13.10;29.90;100063.84;4907632;29;19926;-66
2023/10/11 12:11:53;;;;;;;;;;;;;;;12.83;30.43;100095.28;4929842;29;19993;-66
2023/10/11 12:14:22;;;;;;;;;;;;;;;12.55;31.42;100073.75;4965325;28;20069;-68
2023/10/11 12:16:49;;;;;;;;;;;;;;;12.56;31.38;100096.50;4966479;28;19949;-68
2023/10/11 12:19:15;;;;;;;;;;;;;;;12.86;31.25;100056.31;4946524;28;19926;-68
2023/10/11 12:21:41;;;;;;;;;;;;;;;13.78;29.52;100075.13;4964458;28;19973;-67
2023/10/11 12:24:11;;;;;;;;;;;;;;;13.50;29.89;100047.38;4950374;28;20286;-67
2023/10/11 12:26:43;;;;;;;;;;;;;;;12.25;31.60;100055.50;4965432;28;20469;-67
2023/10/11 12:29:10;;;;;;;;;;;;;;;10.92;33.64;100080.78;4962776;28;19933;-66
2023/10/11 12:31:39;;;;;;;;;;;;;;;9.89;35.98;100040.97;4950054;28;19926;-67
2023/10/11 12:34:05;;;;;;;;;;;;;;;9.32;37.37;100045.22;4964152;28;19932;-66
2023/10/11 12:36:31;;;;;;;;;;;;;;;8.98;37.96;100020.91;4961112;28;19930;-66
2023/10/11 12:38:57;;;;;;;;;;;;;;;9.25;37.94;100026.34;4965740;28;20349;-66
2023/10/11 12:41:23;;;;;;;;;;;;;;;10.03;37.08;100029.56;4964939;28;19926;-66
2023/10/11 12:43:50;;;;;;;;;;;;;;;10.88;35.75;100025.78;4951691;28;19926;-66
2023/10/11 12:46:17;;;;;;;;;;;;;;;10.44;36.10;100024.31;4965447;28;20036;-66
2023/10/11 12:48:43;;;;;;;;;;;;;;;9.75;37.55;100015.22;4946895;28;20425;-66